TimeCST,TemperatureF,Dew PointF,Humidity,Sea Level PressureIn,VisibilityMPH,Wind Direction,Wind SpeedMPH,Gust SpeedMPH,PrecipitationIn,Events,Conditions,WindDirDegrees,DateUTC
12:53 AM,27.0,23.0,85,30.23,10.0,Calm,Calm,-,N/A,,Clear,0,2012-11-05 06:53:00
1:53 AM,25.0,23.0,92,30.24,8.0,Calm,Calm,-,N/A,,Clear,0,2012-11-05 07:53:00
2:53 AM,24.1,21.9,91,30.24,7.0,Calm,Calm,-,N/A,,Clear,0,2012-11-05 08:53:00
3:53 AM,23.0,21.0,92,30.24,8.0,Calm,Calm,-,N/A,,Clear,0,2012-11-05 09:53:00
4:53 AM,23.0,21.0,92,30.25,6.0,Calm,Calm,-,N/A,,Clear,0,2012-11-05 10:53:00
5:53 AM,23.0,21.0,92,30.24,7.0,NNW,3.5,-,N/A,,Clear,340,2012-11-05 11:53:00
6:53 AM,23.0,19.9,88,30.25,5.0,Calm,Calm,-,N/A,,Partly Cloudy,0,2012-11-05 12:53:00
7:37 AM,24.8,21.2,86,30.22,5.0,Calm,Calm,-,N/A,,Mostly Cloudy,0,2012-11-05 13:37:00
7:53 AM,28.0,25.0,88,30.25,6.0,NNW,3.5,-,N/A,,Overcast,340,2012-11-05 13:53:00
8:53 AM,34.0,30.0,85,30.25,8.0,Calm,Calm,-,N/A,,Mostly Cloudy,0,2012-11-05 14:53:00
9:19 AM,37.4,30.2,75,30.22,10.0,ENE,5.8,-,N/A,,Scattered Clouds,60,2012-11-05 15:19:00
9:53 AM,39.9,28.0,63,30.25,10.0,ENE,6.9,-,N/A,,Partly Cloudy,70,2012-11-05 15:53:00
10:53 AM,42.1,28.0,58,30.26,10.0,East,8.1,-,N/A,,Mostly Cloudy,80,2012-11-05 16:53:00
11:53 AM,41.0,27.0,57,30.25,10.0,Calm,Calm,-,N/A,,Mostly Cloudy,0,2012-11-05 17:53:00
12:53 PM,42.1,28.0,58,30.21,10.0,ENE,9.2,-,N/A,,Overcast,60,2012-11-05 18:53:00
1:53 PM,41.0,27.0,57,30.20,10.0,Variable,4.6,-,N/A,,Mostly Cloudy,0,2012-11-05 19:53:00
2:53 PM,43.0,30.0,60,30.19,10.0,East,4.6,-,N/A,,Mostly Cloudy,90,2012-11-05 20:53:00
3:53 PM,41.0,30.0,65,30.19,10.0,East,5.8,-,N/A,,Scattered Clouds,80,2012-11-05 21:53:00
4:53 PM,37.0,30.0,76,30.19,10.0,East,5.8,-,N/A,,Partly Cloudy,90,2012-11-05 22:53:00
5:53 PM,34.0,28.9,82,30.20,10.0,Calm,Calm,-,N/A,,Partly Cloudy,0,2012-11-05 23:53:00
6:53 PM,34.0,28.9,82,30.19,10.0,ESE,3.5,-,N/A,,Clear,120,2012-11-06 00:53:00
7:53 PM,30.0,28.0,92,30.18,10.0,Calm,Calm,-,N/A,,Clear,0,2012-11-06 01:53:00
8:53 PM,30.0,27.0,88,30.17,8.0,Calm,Calm,-,N/A,,Clear,0,2012-11-06 02:53:00
9:53 PM,28.0,27.0,96,30.15,4.0,Calm,Calm,-,N/A,,Clear,0,2012-11-06 03:53:00
10:18 PM,28.4,26.6,93,30.11,2.5,Calm,Calm,-,N/A,,Partly Cloudy,0,2012-11-06 04:18:00
10:33 PM,28.4,26.6,93,30.11,5.0,Calm,Calm,-,N/A,,Clear,0,2012-11-06 04:33:00
10:53 PM,28.0,25.0,88,30.12,7.0,Calm,Calm,-,N/A,,Clear,0,2012-11-06 04:53:00
11:53 PM,28.9,26.1,89,30.12,8.0,SSE,3.5,-,N/A,,Clear,160,2012-11-06 05:53:00